sensor_id;sensor_type;location;lat;lon;timestamp;pressure;altitude;pressure_sealevel;temperature;humidity
7834;BME280;3962;42.696;23.354;2022-09-12T00:01:07;95038.09;;;15.58;97.65
7834;BME280;3962;42.696;23.354;2022-09-12T00:03:34;95037.44;;;15.56;97.51
7834;BME280;3962;42.696;23.354;2022-09-12T00:06:06;95034.94;;;15.55;97.48
7834;BME280;3962;42.696;23.354;2022-09-12T00:08:35;95039.28;;;15.56;97.64
7834;BME280;3962;42.696;23.354;2022-09-12T00:11:04;95039.28;;;15.41;97.65
7834;BME280;3962;42.696;23.354;2022-09-12T00:13:31;95046.38;;;15.49;97.93
7834;BME280;3962;42.696;23.354;2022-09-12T00:15:58;95046.38;;;15.49;97.40
7834;BME280;3962;42.696;23.354;2022-09-12T00:18:25;95040.00;;;15.35;97.03
7834;BME280;3962;42.696;23.354;2022-09-12T00:20:52;95027.81;;;15.25;96.96
7834;BME280;3962;42.696;23.354;2022-09-12T00:23:19;95053.41;;;15.35;97.62
7834;BME280;3962;42.696;23.354;2022-09-12T00:25:47;95045.22;;;15.29;97.61
7834;BME280;3962;42.696;23.354;2022-09-12T00:28:15;95042.19;;;15.32;97.95
7834;BME280;3962;42.696;23.354;2022-09-12T00:30:45;95047.56;;;15.32;98.09
7834;BME280;3962;42.696;23.354;2022-09-12T00:33:13;95041.84;;;15.35;97.75
7834;BME280;3962;42.696;23.354;2022-09-12T00:35:41;95026.38;;;15.22;97.54
7834;BME280;3962;42.696;23.354;2022-09-12T00:38:08;95036.34;;;15.28;97.32
7834;BME280;3962;42.696;23.354;2022-09-12T00:40:35;95046.97;;;15.22;97.55
7834;BME280;3962;42.696;23.354;2022-09-12T00:43:03;95037.25;;;15.21;96.94
7834;BME280;3962;42.696;23.354;2022-09-12T00:45:30;95044.50;;;15.12;96.91
7834;BME280;3962;42.696;23.354;2022-09-12T00:48:00;95046.06;;;15.07;97.37
7834;BME280;3962;42.696;23.354;2022-09-12T00:50:28;95038.03;;;15.07;96.64
7834;BME280;3962;42.696;23.354;2022-09-12T00:52:59;95049.28;;;15.02;96.53
7834;BME280;3962;42.696;23.354;2022-09-12T00:55:31;95044.09;;;15.01;96.84
7834;BME280;3962;42.696;23.354;2022-09-12T00:58:04;95036.13;;;14.93;96.44
7834;BME280;3962;42.696;23.354;2022-09-12T01:00:34;95041.00;;;14.89;96.01
7834;BME280;3962;42.696;23.354;2022-09-12T01:03:06;95040.31;;;14.95;96.56
7834;BME280;3962;42.696;23.354;2022-09-12T01:05:36;95025.78;;;14.90;95.66
7834;BME280;3962;42.696;23.354;2022-09-12T01:08:05;95037.56;;;15.03;96.15
7834;BME280;3962;42.696;23.354;2022-09-12T01:10:34;95044.25;;;15.07;95.76
7834;BME280;3962;42.696;23.354;2022-09-12T01:13:07;95035.59;;;14.97;95.67
7834;BME280;3962;42.696;23.354;2022-09-12T01:15:36;95037.16;;;14.92;95.83
7834;BME280;3962;42.696;23.354;2022-09-12T01:18:10;95030.59;;;14.94;96.47
7834;BME280;3962;42.696;23.354;2022-09-12T01:20:50;95016.09;;;14.89;95.87
7834;BME280;3962;42.696;23.354;2022-09-12T01:26:53;95018.13;;;14.87;95.87
7834;BME280;3962;42.696;23.354;2022-09-12T01:29:46;95036.75;;;14.80;95.54
7834;BME280;3962;42.696;23.354;2022-09-12T01:32:25;95030.03;;;14.84;95.76
7834;BME280;3962;42.696;23.354;2022-09-12T01:35:00;95031.59;;;14.79;95.42
7834;BME280;3962;42.696;23.354;2022-09-12T01:37:37;95032.47;;;14.72;95.34
7834;BME280;3962;42.696;23.354;2022-09-12T01:40:09;95031.97;;;14.68;96.28
7834;BME280;3962;42.696;23.354;2022-09-12T01:42:45;95025.44;;;14.71;96.47
7834;BME280;3962;42.696;23.354;2022-09-12T01:45:21;95026.28;;;14.71;95.70
7834;BME280;3962;42.696;23.354;2022-09-12T01:47:55;95031.63;;;14.71;95.92
7834;BME280;3962;42.696;23.354;2022-09-12T01:50:29;95024.09;;;14.67;95.77
7834;BME280;3962;42.696;23.354;2022-09-12T01:53:01;95019.28;;;14.62;95.62
7834;BME280;3962;42.696;23.354;2022-09-12T01:55:33;95016.66;;;14.54;95.72
7834;BME280;3962;42.696;23.354;2022-09-12T01:58:04;95002.53;;;14.46;95.96
7834;BME280;3962;42.696;23.354;2022-09-12T02:00:36;95016.19;;;14.51;95.53
7834;BME280;3962;42.696;23.354;2022-09-12T02:03:09;95007.16;;;14.52;95.35
7834;BME280;3962;42.696;23.354;2022-09-12T02:05:41;95011.31;;;14.54;95.63
7834;BME280;3962;42.696;23.354;2022-09-12T02:08:12;95022.69;;;14.56;95.73
7834;BME280;3962;42.696;23.354;2022-09-12T02:10:43;95028.88;;;14.57;95.63
7834;BME280;3962;42.696;23.354;2022-09-12T02:13:14;95029.03;;;14.55;95.71
7834;BME280;3962;42.696;23.354;2022-09-12T02:15:46;95039.78;;;14.47;95.32
7834;BME280;3962;42.696;23.354;2022-09-12T02:18:17;95029.94;;;14.48;95.52
7834;BME280;3962;42.696;23.354;2022-09-12T02:20:46;95020.41;;;14.45;95.34
7834;BME280;3962;42.696;23.354;2022-09-12T02:23:18;95026.78;;;14.44;95.41
7834;BME280;3962;42.696;23.354;2022-09-12T02:25:48;95022.97;;;14.39;95.55
7834;BME280;3962;42.696;23.354;2022-09-12T02:28:19;95016.66;;;14.32;95.68
7834;BME280;3962;42.696;23.354;2022-09-12T02:30:54;95015.47;;;14.34;95.88
7834;BME280;3962;42.696;23.354;2022-09-12T02:33:29;95021.84;;;14.33;96.00
7834;BME280;3962;42.696;23.354;2022-09-12T02:36:04;95019.38;;;14.24;95.78
7834;BME280;3962;42.696;23.354;2022-09-12T02:38:37;95026.72;;;14.30;96.28
7834;BME280;3962;42.696;23.354;2022-09-12T02:41:09;95001.19;;;14.11;95.42
7834;BME280;3962;42.696;23.354;2022-09-12T02:43:37;95026.94;;;14.12;95.72
7834;BME280;3962;42.696;23.354;2022-09-12T02:46:07;94986.34;;;14.01;95.82
7834;BME280;3962;42.696;23.354;2022-09-12T02:48:41;95022.84;;;14.32;95.45
7834;BME280;3962;42.696;23.354;2022-09-12T02:51:09;95025.81;;;14.37;94.87
7834;BME280;3962;42.696;23.354;2022-09-12T02:53:37;95023.22;;;14.21;95.06
7834;BME280;3962;42.696;23.354;2022-09-12T02:56:07;95024.06;;;14.22;94.77
7834;BME280;3962;42.696;23.354;2022-09-12T02:58:36;95037.47;;;14.14;94.64
7834;BME280;3962;42.696;23.354;2022-09-12T03:01:10;95040.47;;;14.11;94.91
7834;BME280;3962;42.696;23.354;2022-09-12T03:03:53;95048.81;;;14.16;95.37
7834;BME280;3962;42.696;23.354;2022-09-12T03:06:29;95044.00;;;14.11;94.95
7834;BME280;3962;42.696;23.354;2022-09-12T03:09:09;95044.66;;;14.13;95.41
7834;BME280;3962;42.696;23.354;2022-09-12T03:12:01;95041.69;;;14.08;95.28
7834;BME280;3962;42.696;23.354;2022-09-12T03:14:57;95036.66;;;14.05;95.50
7834;BME280;3962;42.696;23.354;2022-09-12T03:17:37;95041.34;;;14.03;95.40
7834;BME280;3962;42.696;23.354;2022-09-12T03:20:10;95037.66;;;14.04;95.42
7834;BME280;3962;42.696;23.354;2022-09-12T03:22:45;95033.66;;;14.00;94.95
7834;BME280;3962;42.696;23.354;2022-09-12T03:25:17;95037.53;;;13.98;95.78
7834;BME280;3962;42.696;23.354;2022-09-12T03:27:52;95035.69;;;13.98;95.47
7834;BME280;3962;42.696;23.354;2022-09-12T03:30:20;95032.72;;;13.93;95.92
7834;BME280;3962;42.696;23.354;2022-09-12T03:32:49;95040.91;;;13.92;96.07
7834;BME280;3962;42.696;23.354;2022-09-12T03:35:19;95030.38;;;13.90;96.31
7834;BME280;3962;42.696;23.354;2022-09-12T03:37:47;95041.38;;;13.95;95.93
7834;BME280;3962;42.696;23.354;2022-09-12T03:40:15;95036.84;;;13.96;95.86
7834;BME280;3962;42.696;23.354;2022-09-12T03:42:42;95031.53;;;13.88;95.36
7834;BME280;3962;42.696;23.354;2022-09-12T03:45:09;95034.03;;;13.89;95.69
7834;BME280;3962;42.696;23.354;2022-09-12T03:47:36;95027.03;;;13.88;95.35
7834;BME280;3962;42.696;23.354;2022-09-12T03:50:03;95039.69;;;14.02;95.55
7834;BME280;3962;42.696;23.354;2022-09-12T03:52:32;95042.50;;;14.09;95.14
7834;BME280;3962;42.696;23.354;2022-09-12T03:54:59;95039.50;;;14.04;95.09
7834;BME280;3962;42.696;23.354;2022-09-12T03:57:25;95037.22;;;13.93;95.53
7834;BME280;3962;42.696;23.354;2022-09-12T03:59:52;95038.84;;;14.02;95.36
7834;BME280;3962;42.696;23.354;2022-09-12T04:02:19;95041.03;;;13.98;95.48
7834;BME280;3962;42.696;23.354;2022-09-12T04:04:46;95047.22;;;13.99;95.46
7834;BME280;3962;42.696;23.354;2022-09-12T04:07:13;95042.00;;;14.05;95.23
7834;BME280;3962;42.696;23.354;2022-09-12T04:09:42;95035.03;;;13.96;95.38
7834;BME280;3962;42.696;23.354;2022-09-12T04:12:09;95043.06;;;13.96;94.82
7834;BME280;3962;42.696;23.354;2022-09-12T04:14:37;95040.19;;;14.06;95.16
7834;BME280;3962;42.696;23.354;2022-09-12T04:17:04;95040.50;;;14.03;95.09
7834;BME280;3962;42.696;23.354;2022-09-12T04:19:31;95052.69;;;14.05;94.70
7834;BME280;3962;42.696;23.354;2022-09-12T04:21:58;95049.06;;;13.98;94.83
7834;BME280;3962;42.696;23.354;2022-09-12T04:24:25;95056.06;;;13.99;94.47
7834;BME280;3962;42.696;23.354;2022-09-12T04:26:53;95048.03;;;13.99;94.82
7834;BME280;3962;42.696;23.354;2022-09-12T04:29:20;95063.94;;;14.01;95.05
7834;BME280;3962;42.696;23.354;2022-09-12T04:31:47;95058.06;;;14.05;94.51
7834;BME280;3962;42.696;23.354;2022-09-12T04:34:14;95058.00;;;14.21;93.90
7834;BME280;3962;42.696;23.354;2022-09-12T04:36:41;95051.47;;;14.24;93.62
7834;BME280;3962;42.696;23.354;2022-09-12T04:39:09;95050.47;;;14.17;92.85
7834;BME280;3962;42.696;23.354;2022-09-12T04:41:37;95050.47;;;14.17;93.58
7834;BME280;3962;42.696;23.354;2022-09-12T04:44:09;95056.47;;;14.27;93.96
7834;BME280;3962;42.696;23.354;2022-09-12T04:46:38;95050.28;;;14.34;93.63
7834;BME280;3962;42.696;23.354;2022-09-12T04:49:06;95060.00;;;14.27;93.06
7834;BME280;3962;42.696;23.354;2022-09-12T04:51:35;95049.34;;;14.19;92.74
7834;BME280;3962;42.696;23.354;2022-09-12T04:54:04;95052.84;;;14.50;92.51
7834;BME280;3962;42.696;23.354;2022-09-12T04:56:31;95063.84;;;14.55;91.73
7834;BME280;3962;42.696;23.354;2022-09-12T04:58:59;95068.59;;;14.45;91.90
7834;BME280;3962;42.696;23.354;2022-09-12T05:01:28;95051.44;;;14.32;92.24
7834;BME280;3962;42.696;23.354;2022-09-12T05:03:56;95072.88;;;14.54;92.22
7834;BME280;3962;42.696;23.354;2022-09-12T05:06:25;95066.84;;;14.60;91.44
7834;BME280;3962;42.696;23.354;2022-09-12T05:08:53;95071.66;;;14.65;91.49
7834;BME280;3962;42.696;23.354;2022-09-12T05:11:22;95066.78;;;14.68;91.08
7834;BME280;3962;42.696;23.354;2022-09-12T05:13:49;95061.75;;;14.73;90.97
7834;BME280;3962;42.696;23.354;2022-09-12T05:16:17;95060.78;;;14.66;90.58
7834;BME280;3962;42.696;23.354;2022-09-12T05:18:46;95070.84;;;14.64;90.77
7834;BME280;3962;42.696;23.354;2022-09-12T05:21:16;95080.44;;;14.81;90.54
7834;BME280;3962;42.696;23.354;2022-09-12T05:23:44;95072.34;;;14.89;90.38
7834;BME280;3962;42.696;23.354;2022-09-12T05:26:13;95068.22;;;15.01;89.63
7834;BME280;3962;42.696;23.354;2022-09-12T05:28:41;95067.88;;;15.04;88.25
7834;BME280;3962;42.696;23.354;2022-09-12T05:31:10;95069.78;;;14.95;88.29
7834;BME280;3962;42.696;23.354;2022-09-12T05:33:39;95066.38;;;15.01;88.65
7834;BME280;3962;42.696;23.354;2022-09-12T05:36:10;95074.00;;;14.90;88.74
7834;BME280;3962;42.696;23.354;2022-09-12T05:38:37;95068.13;;;14.94;88.85
7834;BME280;3962;42.696;23.354;2022-09-12T05:41:05;95067.88;;;15.04;88.52
7834;BME280;3962;42.696;23.354;2022-09-12T05:43:33;95070.03;;;15.08;87.96
7834;BME280;3962;42.696;23.354;2022-09-12T05:46:01;95079.91;;;15.08;87.96
7834;BME280;3962;42.696;23.354;2022-09-12T05:48:28;95071.56;;;15.25;87.58
7834;BME280;3962;42.696;23.354;2022-09-12T05:50:59;95071.63;;;15.40;87.03
7834;BME280;3962;42.696;23.354;2022-09-12T05:53:28;95063.56;;;15.40;86.48
7834;BME280;3962;42.696;23.354;2022-09-12T05:56:04;95067.75;;;15.57;85.69
7834;BME280;3962;42.696;23.354;2022-09-12T05:58:32;95057.81;;;15.65;85.05
7834;BME280;3962;42.696;23.354;2022-09-12T06:01:06;95046.44;;;16.07;86.22
7834;BME280;3962;42.696;23.354;2022-09-12T06:03:34;95054.66;;;16.49;84.96
7834;BME280;3962;42.696;23.354;2022-09-12T06:06:02;95050.03;;;16.43;82.13
7834;BME280;3962;42.696;23.354;2022-09-12T06:08:31;95045.66;;;16.56;81.08
7834;BME280;3962;42.696;23.354;2022-09-12T06:10:59;95052.00;;;16.70;81.56
7834;BME280;3962;42.696;23.354;2022-09-12T06:13:26;95042.41;;;16.82;79.82
7834;BME280;3962;42.696;23.354;2022-09-12T06:15:53;95053.63;;;17.27;80.58
7834;BME280;3962;42.696;23.354;2022-09-12T06:18:20;95047.72;;;17.17;78.88
7834;BME280;3962;42.696;23.354;2022-09-12T06:20:47;95052.09;;;17.18;78.49
7834;BME280;3962;42.696;23.354;2022-09-12T06:23:13;95056.00;;;17.16;78.39
7834;BME280;3962;42.696;23.354;2022-09-12T06:25:46;95039.34;;;17.06;78.34
7834;BME280;3962;42.696;23.354;2022-09-12T06:28:14;95051.53;;;17.02;79.14
7834;BME280;3962;42.696;23.354;2022-09-12T06:30:40;95054.41;;;17.21;79.32
7834;BME280;3962;42.696;23.354;2022-09-12T06:33:07;95058.50;;;17.17;78.25
7834;BME280;3962;42.696;23.354;2022-09-12T06:35:35;95055.69;;;17.04;79.15
7834;BME280;3962;42.696;23.354;2022-09-12T06:38:03;95073.59;;;16.97;79.43
7834;BME280;3962;42.696;23.354;2022-09-12T06:40:29;95073.94;;;17.09;80.04
7834;BME280;3962;42.696;23.354;2022-09-12T06:42:58;95082.91;;;17.37;80.67
7834;BME280;3962;42.696;23.354;2022-09-12T06:45:24;95084.88;;;17.28;79.29
7834;BME280;3962;42.696;23.354;2022-09-12T06:47:51;95085.69;;;17.29;78.64
7834;BME280;3962;42.696;23.354;2022-09-12T06:50:18;95088.59;;;17.27;79.86
7834;BME280;3962;42.696;23.354;2022-09-12T06:52:48;95088.09;;;17.38;79.63
7834;BME280;3962;42.696;23.354;2022-09-12T06:55:15;95091.84;;;17.23;79.52
7834;BME280;3962;42.696;23.354;2022-09-12T06:57:42;95089.22;;;17.08;81.05
7834;BME280;3962;42.696;23.354;2022-09-12T07:00:12;95072.13;;;16.95;79.52
7834;BME280;3962;42.696;23.354;2022-09-12T07:02:39;95085.56;;;16.95;79.50
7834;BME280;3962;42.696;23.354;2022-09-12T07:05:06;95079.44;;;17.01;79.60
7834;BME280;3962;42.696;23.354;2022-09-12T07:07:33;95085.28;;;16.90;79.69
7834;BME280;3962;42.696;23.354;2022-09-12T07:10:00;95086.59;;;16.94;80.43
7834;BME280;3962;42.696;23.354;2022-09-12T07:12:27;95094.13;;;17.05;79.74
7834;BME280;3962;42.696;23.354;2022-09-12T07:14:54;95088.97;;;17.24;80.01
7834;BME280;3962;42.696;23.354;2022-09-12T07:17:22;95088.47;;;17.35;78.63
7834;BME280;3962;42.696;23.354;2022-09-12T07:19:49;95084.47;;;17.31;77.87
7834;BME280;3962;42.696;23.354;2022-09-12T07:22:16;95095.53;;;17.36;77.17
7834;BME280;3962;42.696;23.354;2022-09-12T07:24:42;95086.47;;;17.65;76.87
7834;BME280;3962;42.696;23.354;2022-09-12T07:27:10;95088.84;;;17.74;75.81
7834;BME280;3962;42.696;23.354;2022-09-12T07:29:37;95085.16;;;17.82;75.13
7834;BME280;3962;42.696;23.354;2022-09-12T07:32:04;95088.28;;;17.85;75.74
7834;BME280;3962;42.696;23.354;2022-09-12T07:34:33;95081.56;;;18.02;73.73
7834;BME280;3962;42.696;23.354;2022-09-12T07:37:00;95083.78;;;18.26;73.63
7834;BME280;3962;42.696;23.354;2022-09-12T07:39:27;95088.38;;;18.66;72.14
7834;BME280;3962;42.696;23.354;2022-09-12T07:41:53;95088.28;;;18.47;70.46
7834;BME280;3962;42.696;23.354;2022-09-12T07:44:21;95089.50;;;18.44;71.44
7834;BME280;3962;42.696;23.354;2022-09-12T07:46:48;95080.28;;;18.26;71.55
7834;BME280;3962;42.696;23.354;2022-09-12T07:49:16;95084.19;;;18.51;71.16
7834;BME280;3962;42.696;23.354;2022-09-12T07:51:44;95080.16;;;19.79;67.27
7834;BME280;3962;42.696;23.354;2022-09-12T07:54:11;95086.78;;;20.29;63.93
7834;BME280;3962;42.696;23.354;2022-09-12T07:56:38;95084.00;;;20.61;61.88
7834;BME280;3962;42.696;23.354;2022-09-12T07:59:05;95089.47;;;21.05;60.24
7834;BME280;3962;42.696;23.354;2022-09-12T08:01:32;95094.47;;;21.77;58.10
7834;BME280;3962;42.696;23.354;2022-09-12T08:03:59;95094.19;;;20.59;60.13
7834;BME280;3962;42.696;23.354;2022-09-12T08:06:27;95089.06;;;20.38;62.72
7834;BME280;3962;42.696;23.354;2022-09-12T08:08:59;95097.56;;;19.44;64.11
7834;BME280;3962;42.696;23.354;2022-09-12T08:11:27;95096.66;;;19.18;65.49
7834;BME280;3962;42.696;23.354;2022-09-12T08:13:55;95103.06;;;19.10;66.84
7834;BME280;3962;42.696;23.354;2022-09-12T08:16:24;95090.91;;;18.74;67.50
7834;BME280;3962;42.696;23.354;2022-09-12T08:18:52;95090.84;;;19.14;66.00
7834;BME280;3962;42.696;23.354;2022-09-12T08:21:20;95088.88;;;20.14;63.52
7834;BME280;3962;42.696;23.354;2022-09-12T08:23:50;95097.13;;;21.15;60.70
7834;BME280;3962;42.696;23.354;2022-09-12T08:26:19;95093.97;;;21.18;58.98
7834;BME280;3962;42.696;23.354;2022-09-12T08:28:46;95089.88;;;21.77;59.17
7834;BME280;3962;42.696;23.354;2022-09-12T08:31:15;95088.81;;;21.10;59.63
7834;BME280;3962;42.696;23.354;2022-09-12T08:33:42;95083.09;;;20.80;61.39
7834;BME280;3962;42.696;23.354;2022-09-12T08:36:10;95084.66;;;20.37;62.11
7834;BME280;3962;42.696;23.354;2022-09-12T08:38:38;95075.16;;;20.22;61.87
7834;BME280;3962;42.696;23.354;2022-09-12T08:41:12;95069.53;;;19.97;62.65
7834;BME280;3962;42.696;23.354;2022-09-12T08:46:43;95074.88;;;20.49;60.78
7834;BME280;3962;42.696;23.354;2022-09-12T08:49:15;95085.75;;;20.17;61.70
7834;BME280;3962;42.696;23.354;2022-09-12T08:51:44;95078.25;;;19.93;63.15
7834;BME280;3962;42.696;23.354;2022-09-12T08:54:19;95070.91;;;20.58;61.46
7834;BME280;3962;42.696;23.354;2022-09-12T08:56:47;95072.34;;;20.61;60.53
7834;BME280;3962;42.696;23.354;2022-09-12T08:59:15;95071.03;;;20.06;61.48
7834;BME280;3962;42.696;23.354;2022-09-12T09:01:43;95065.81;;;20.18;62.00
7834;BME280;3962;42.696;23.354;2022-09-12T09:04:31;95073.66;;;20.45;60.82
7834;BME280;3962;42.696;23.354;2022-09-12T09:07:19;95056.81;;;21.62;57.13
7834;BME280;3962;42.696;23.354;2022-09-12T09:10:11;95055.28;;;21.11;56.94
7834;BME280;3962;42.696;23.354;2022-09-12T09:12:48;95049.16;;;20.34;59.02
7834;BME280;3962;42.696;23.354;2022-09-12T09:15:40;95046.09;;;19.52;61.24
7834;BME280;3962;42.696;23.354;2022-09-12T09:18:16;95049.56;;;20.31;59.66
7834;BME280;3962;42.696;23.354;2022-09-12T09:20:47;95045.47;;;20.72;58.62
7834;BME280;3962;42.696;23.354;2022-09-12T09:23:21;95061.00;;;20.96;57.92
7834;BME280;3962;42.696;23.354;2022-09-12T09:25:52;95056.56;;;21.08;57.43
7834;BME280;3962;42.696;23.354;2022-09-12T09:28:24;95040.69;;;21.49;56.95
7834;BME280;3962;42.696;23.354;2022-09-12T09:30:58;95054.50;;;21.97;55.75
7834;BME280;3962;42.696;23.354;2022-09-12T09:33:27;95044.34;;;21.68;56.52
7834;BME280;3962;42.696;23.354;2022-09-12T09:36:02;95036.97;;;21.99;55.61
7834;BME280;3962;42.696;23.354;2022-09-12T09:38:40;95035.16;;;21.38;55.39
7834;BME280;3962;42.696;23.354;2022-09-12T09:41:22;95028.22;;;21.48;56.99
7834;BME280;3962;42.696;23.354;2022-09-12T09:43:55;95032.00;;;21.72;55.57
7834;BME280;3962;42.696;23.354;2022-09-12T09:46:25;95027.38;;;22.21;54.96
7834;BME280;3962;42.696;23.354;2022-09-12T09:48:53;95025.78;;;21.65;55.67
7834;BME280;3962;42.696;23.354;2022-09-12T09:51:24;95010.41;;;21.59;56.22
7834;BME280;3962;42.696;23.354;2022-09-12T09:53:53;95028.47;;;21.65;55.66
7834;BME280;3962;42.696;23.354;2022-09-12T09:56:26;95015.81;;;21.65;55.17
7834;BME280;3962;42.696;23.354;2022-09-12T09:58:54;95016.22;;;21.38;56.19
7834;BME280;3962;42.696;23.354;2022-09-12T10:01:21;95006.06;;;21.27;57.14
7834;BME280;3962;42.696;23.354;2022-09-12T10:03:50;95024.16;;;21.33;55.48
7834;BME280;3962;42.696;23.354;2022-09-12T10:06:28;95021.34;;;21.46;56.07
7834;BME280;3962;42.696;23.354;2022-09-12T10:09:19;95013.72;;;21.67;56.96
7834;BME280;3962;42.696;23.354;2022-09-12T10:11:49;95020.31;;;22.20;55.22
7834;BME280;3962;42.696;23.354;2022-09-12T10:14:37;95016.03;;;21.88;54.10
7834;BME280;3962;42.696;23.354;2022-09-12T10:17:25;95011.22;;;21.90;54.47
7834;BME280;3962;42.696;23.354;2022-09-12T10:19:55;95023.03;;;21.71;54.79
7834;BME280;3962;42.696;23.354;2022-09-12T10:22:23;95011.91;;;21.55;54.65
7834;BME280;3962;42.696;23.354;2022-09-12T10:24:53;94997.50;;;21.61;55.55
7834;BME280;3962;42.696;23.354;2022-09-12T10:27:22;95023.69;;;21.91;56.21
7834;BME280;3962;42.696;23.354;2022-09-12T10:29:52;95025.66;;;22.02;55.17
7834;BME280;3962;42.696;23.354;2022-09-12T10:32:25;95018.97;;;21.56;55.71
7834;BME280;3962;42.696;23.354;2022-09-12T10:34:58;94980.88;;;21.82;55.64
7834;BME280;3962;42.696;23.354;2022-09-12T10:37:29;95003.09;;;21.66;54.01
7834;BME280;3962;42.696;23.354;2022-09-12T10:39:58;95015.50;;;21.49;55.28
7834;BME280;3962;42.696;23.354;2022-09-12T10:42:47;95011.22;;;21.66;54.19
7834;BME280;3962;42.696;23.354;2022-09-12T10:45:20;95003.56;;;21.56;51.96
7834;BME280;3962;42.696;23.354;2022-09-12T10:47:49;95007.63;;;20.72;53.67
7834;BME280;3962;42.696;23.354;2022-09-12T10:50:23;95006.72;;;20.41;55.26
7834;BME280;3962;42.696;23.354;2022-09-12T10:52:51;95005.91;;;21.22;53.09
7834;BME280;3962;42.696;23.354;2022-09-12T10:55:21;95022.34;;;21.51;52.52
7834;BME280;3962;42.696;23.354;2022-09-12T10:57:58;95013.50;;;21.69;52.46
7834;BME280;3962;42.696;23.354;2022-09-12T11:00:35;95019.91;;;21.74;53.28
7834;BME280;3962;42.696;23.354;2022-09-12T11:03:14;95011.50;;;21.82;52.83
7834;BME280;3962;42.696;23.354;2022-09-12T11:05:55;95025.34;;;21.92;52.93
7834;BME280;3962;42.696;23.354;2022-09-12T11:08:39;95006.41;;;22.10;52.35
7834;BME280;3962;42.696;23.354;2022-09-12T11:11:24;95006.97;;;22.19;51.90
7834;BME280;3962;42.696;23.354;2022-09-12T11:14:09;95013.38;;;22.24;51.75
7834;BME280;3962;42.696;23.354;2022-09-12T11:16:42;95022.41;;;21.76;52.99
7834;BME280;3962;42.696;23.354;2022-09-12T11:19:26;95023.00;;;21.47;54.32
7834;BME280;3962;42.696;23.354;2022-09-12T11:22:08;95020.09;;;21.48;54.66
7834;BME280;3962;42.696;23.354;2022-09-12T11:25:07;94994.69;;;21.98;53.32
7834;BME280;3962;42.696;23.354;2022-09-12T11:27:49;95026.69;;;20.90;53.68
7834;BME280;3962;42.696;23.354;2022-09-12T11:30:20;95019.09;;;20.68;55.01
7834;BME280;3962;42.696;23.354;2022-09-12T11:33:05;95010.00;;;20.49;56.72
7834;BME280;3962;42.696;23.354;2022-09-12T11:35:38;95023.16;;;20.33;57.34
7834;BME280;3962;42.696;23.354;2022-09-12T11:38:36;95020.13;;;19.90;57.50
7834;BME280;3962;42.696;23.354;2022-09-12T11:41:10;95033.91;;;20.52;56.62
7834;BME280;3962;42.696;23.354;2022-09-12T11:43:42;95026.72;;;21.21;54.59
7834;BME280;3962;42.696;23.354;2022-09-12T11:46:16;95034.53;;;21.67;53.99
7834;BME280;3962;42.696;23.354;2022-09-12T11:48:48;95009.06;;;21.74;53.10
7834;BME280;3962;42.696;23.354;2022-09-12T11:51:18;95010.41;;;21.59;52.80
7834;BME280;3962;42.696;23.354;2022-09-12T11:53:57;95015.34;;;21.44;53.17
7834;BME280;3962;42.696;23.354;2022-09-12T11:56:25;95014.41;;;21.56;53.01
7834;BME280;3962;42.696;23.354;2022-09-12T11:58:56;95011.41;;;21.40;52.53
7834;BME280;3962;42.696;23.354;2022-09-12T12:01:27;95013.75;;;21.61;53.16
7834;BME280;3962;42.696;23.354;2022-09-12T12:04:00;95009.59;;;21.58;52.93
7834;BME280;3962;42.696;23.354;2022-09-12T12:06:35;95012.72;;;21.55;52.91
7834;BME280;3962;42.696;23.354;2022-09-12T12:09:06;95019.66;;;22.18;52.91
7834;BME280;3962;42.696;23.354;2022-09-12T12:11:37;95015.88;;;22.44;52.93
7834;BME280;3962;42.696;23.354;2022-09-12T12:14:11;94987.47;;;22.28;51.00
7834;BME280;3962;42.696;23.354;2022-09-12T12:16:40;95014.75;;;21.91;50.40
7834;BME280;3962;42.696;23.354;2022-09-12T12:19:23;94994.44;;;21.26;53.02
7834;BME280;3962;42.696;23.354;2022-09-12T12:21:54;94992.19;;;21.48;51.73
7834;BME280;3962;42.696;23.354;2022-09-12T12:24:24;95006.59;;;21.91;49.56
7834;BME280;3962;42.696;23.354;2022-09-12T12:26:57;95006.09;;;21.82;50.19
7834;BME280;3962;42.696;23.354;2022-09-12T12:29:42;95009.78;;;22.48;49.76
7834;BME280;3962;42.696;23.354;2022-09-12T12:32:25;94996.97;;;22.37;49.19
7834;BME280;3962;42.696;23.354;2022-09-12T12:37:56;94989.53;;;21.90;51.99
7834;BME280;3962;42.696;23.354;2022-09-12T12:40:30;94984.00;;;22.21;51.97
7834;BME280;3962;42.696;23.354;2022-09-12T12:43:27;95001.75;;;22.42;51.23
7834;BME280;3962;42.696;23.354;2022-09-12T12:46:07;95008.28;;;21.92;51.07
7834;BME280;3962;42.696;23.354;2022-09-12T12:49:06;94996.34;;;21.50;52.30
7834;BME280;3962;42.696;23.354;2022-09-12T12:51:48;95017.13;;;21.56;52.08
7834;BME280;3962;42.696;23.354;2022-09-12T12:54:29;95001.81;;;21.68;51.54
7834;BME280;3962;42.696;23.354;2022-09-12T12:57:03;95002.13;;;21.54;51.83
7834;BME280;3962;42.696;23.354;2022-09-12T12:59:31;94999.53;;;21.10;53.56
7834;BME280;3962;42.696;23.354;2022-09-12T13:01:58;95008.88;;;21.45;54.27
7834;BME280;3962;42.696;23.354;2022-09-12T13:04:27;95013.34;;;21.57;54.13
7834;BME280;3962;42.696;23.354;2022-09-12T13:06:58;95005.59;;;21.67;53.98
7834;BME280;3962;42.696;23.354;2022-09-12T13:09:29;95008.22;;;21.49;54.09
7834;BME280;3962;42.696;23.354;2022-09-12T13:12:00;95002.78;;;20.37;56.63
7834;BME280;3962;42.696;23.354;2022-09-12T13:14:48;94998.00;;;20.39;56.92
7834;BME280;3962;42.696;23.354;2022-09-12T13:17:20;95007.59;;;20.79;55.54
7834;BME280;3962;42.696;23.354;2022-09-12T13:19:50;94997.53;;;21.30;54.82
7834;BME280;3962;42.696;23.354;2022-09-12T13:22:21;95005.00;;;21.28;53.01
7834;BME280;3962;42.696;23.354;2022-09-12T13:24:49;94987.41;;;21.74;52.04
7834;BME280;3962;42.696;23.354;2022-09-12T13:27:18;95004.84;;;21.78;52.32
7834;BME280;3962;42.696;23.354;2022-09-12T13:29:47;94993.41;;;21.52;52.69
7834;BME280;3962;42.696;23.354;2022-09-12T13:32:15;94987.88;;;21.65;52.33
7834;BME280;3962;42.696;23.354;2022-09-12T13:34:55;94986.09;;;21.52;52.45
7834;BME280;3962;42.696;23.354;2022-09-12T13:37:41;94994.72;;;21.43;52.13
7834;BME280;3962;42.696;23.354;2022-09-12T13:40:28;94989.16;;;21.07;52.15
7834;BME280;3962;42.696;23.354;2022-09-12T13:43:22;94997.44;;;21.12;53.72